Time;durP1;ratioP1;P1;durP2;ratioP2;P2;SDS_P1;SDS_P2;PMS_P1;PMS_P2;Temp;Humidity;BMP_temperature;BMP_pressure;BME280_temperature;BME280_humidity;BME280_pressure;Samples;Min_cycle;Max_cycle;Signal;HPM_P1;HPM_P2
2023/09/27 00:01:47;;;;;;;;;;;16.60;84.40;;;;;;5057246;28;20006;-70
2023/09/27 00:04:13;;;;;;;;;;;16.60;84.50;;;;;;5062863;28;19995;-71
2023/09/27 00:06:41;;;;;;;;;;;16.60;84.50;;;;;;5066299;28;19983;-70
2023/09/27 00:09:08;;;;;;;;;;;16.60;84.50;;;;;;5063786;28;19980;-70
2023/09/27 00:11:35;;;;;;;;;;;16.60;84.50;;;;;;5064197;28;19995;-70
2023/09/27 00:14:03;;;;;;;;;;;16.50;84.60;;;;;;5067207;28;19979;-70
2023/09/27 00:16:29;;;;;;;;;;;16.50;84.70;;;;;;5062029;28;19991;-70
2023/09/27 00:18:56;;;;;;;;;;;16.50;84.70;;;;;;5059573;28;20006;-70
2023/09/27 00:21:23;;;;;;;;;;;16.50;84.70;;;;;;5063395;28;19998;-70
2023/09/27 00:23:49;;;;;;;;;;;16.50;84.70;;;;;;5061875;28;20007;-71
2023/09/27 00:26:15;;;;;;;;;;;16.50;84.70;;;;;;5062700;28;20016;-70
2023/09/27 00:28:41;;;;;;;;;;;16.50;84.80;;;;;;5064891;28;20359;-70
2023/09/27 00:31:09;;;;;;;;;;;16.40;84.80;;;;;;5057720;28;19999;-71
2023/09/27 00:33:36;;;;;;;;;;;16.40;84.90;;;;;;5059142;28;19986;-71
2023/09/27 00:36:03;;;;;;;;;;;16.40;84.90;;;;;;5059883;28;19983;-69
2023/09/27 00:38:29;;;;;;;;;;;16.40;84.90;;;;;;5062677;28;20448;-71
2023/09/27 00:40:56;;;;;;;;;;;16.40;84.90;;;;;;5065193;28;20000;-70
2023/09/27 00:43:29;;;;;;;;;;;16.40;85.00;;;;;;5058306;28;20009;-70
2023/09/27 00:45:57;;;;;;;;;;;16.30;85.00;;;;;;5054965;28;19999;-70
2023/09/27 00:48:25;;;;;;;;;;;16.30;85.20;;;;;;5060417;28;19979;-70
2023/09/27 00:50:53;;;;;;;;;;;16.30;85.20;;;;;;5063549;28;20459;-70
2023/09/27 00:53:19;;;;;;;;;;;16.30;85.20;;;;;;5059372;28;19986;-70
2023/09/27 00:55:46;;;;;;;;;;;16.30;85.20;;;;;;5059755;28;19994;-71
2023/09/27 00:58:17;;;;;;;;;;;16.20;85.00;;;;;;5061266;28;21365;-69
2023/09/27 01:00:44;;;;;;;;;;;16.20;85.10;;;;;;5061113;28;19995;-71
2023/09/27 01:03:11;;;;;;;;;;;16.20;85.10;;;;;;5060534;28;19979;-71
2023/09/27 01:05:39;;;;;;;;;;;16.20;85.20;;;;;;5062526;28;19995;-71
2023/09/27 01:08:06;;;;;;;;;;;16.10;85.00;;;;;;5059717;28;19988;-71
2023/09/27 01:13:35;;;;;;;;;;;16.10;85.20;;;;;;5054099;28;19970;-70
2023/09/27 01:16:02;;;;;;;;;;;16.10;85.20;;;;;;5061683;28;19992;-69
2023/09/27 01:18:28;;;;;;;;;;;16.10;85.30;;;;;;5063101;28;20458;-70
2023/09/27 01:20:56;;;;;;;;;;;16.10;85.30;;;;;;5062247;28;19995;-70
2023/09/27 01:23:24;;;;;;;;;;;16.10;85.40;;;;;;5062880;28;19986;-70
2023/09/27 01:25:51;;;;;;;;;;;16.00;85.40;;;;;;5063442;28;19995;-70
2023/09/27 01:28:21;;;;;;;;;;;16.00;85.40;;;;;;5058065;28;19983;-70
2023/09/27 01:30:47;;;;;;;;;;;16.00;85.30;;;;;;5060387;28;19995;-71
2023/09/27 01:33:14;;;;;;;;;;;16.00;85.30;;;;;;5063420;28;19975;-70
2023/09/27 01:35:41;;;;;;;;;;;15.90;85.20;;;;;;5062449;28;19976;-71
2023/09/27 01:38:08;;;;;;;;;;;16.00;85.40;;;;;;5064176;28;20006;-70
2023/09/27 01:40:37;;;;;;;;;;;15.90;85.40;;;;;;5064764;28;20683;-71
2023/09/27 01:43:04;;;;;;;;;;;15.90;85.50;;;;;;5061338;28;19979;-70
2023/09/27 01:45:31;;;;;;;;;;;15.90;85.50;;;;;;5066324;28;20358;-71
2023/09/27 01:47:58;;;;;;;;;;;15.90;85.50;;;;;;5063932;28;20033;-71
2023/09/27 01:50:25;;;;;;;;;;;15.90;85.40;;;;;;5065329;28;20479;-70
2023/09/27 01:52:52;;;;;;;;;;;15.80;85.40;;;;;;5065488;28;19979;-70
2023/09/27 01:55:19;;;;;;;;;;;15.80;85.40;;;;;;5066275;28;19990;-71
2023/09/27 01:57:47;;;;;;;;;;;15.80;85.40;;;;;;5056953;28;19983;-70
2023/09/27 02:00:14;;;;;;;;;;;15.80;85.50;;;;;;5064753;28;19980;-71
2023/09/27 02:02:41;;;;;;;;;;;15.80;85.50;;;;;;5065490;28;19998;-71
2023/09/27 02:05:08;;;;;;;;;;;15.70;85.50;;;;;;5062048;28;22014;-71
2023/09/27 02:07:35;;;;;;;;;;;15.70;85.60;;;;;;5065562;28;19975;-70
2023/09/27 02:10:02;;;;;;;;;;;15.70;85.60;;;;;;5066850;28;19979;-70
2023/09/27 02:12:28;;;;;;;;;;;15.70;85.60;;;;;;5059785;28;20466;-71
2023/09/27 02:14:56;;;;;;;;;;;15.70;85.70;;;;;;5040548;28;19976;-69
2023/09/27 02:17:23;;;;;;;;;;;15.60;85.60;;;;;;5040670;28;20002;-70
2023/09/27 02:19:50;;;;;;;;;;;15.60;85.70;;;;;;5040537;28;19980;-70
2023/09/27 02:22:17;;;;;;;;;;;15.60;85.80;;;;;;5041489;28;19991;-69
2023/09/27 02:24:44;;;;;;;;;;;15.60;85.90;;;;;;5041029;28;20010;-70
2023/09/27 02:27:11;;;;;;;;;;;15.60;85.90;;;;;;5040527;28;19999;-70
2023/09/27 02:29:38;;;;;;;;;;;15.60;85.90;;;;;;5040060;28;20129;-71
2023/09/27 02:32:07;;;;;;;;;;;15.50;86.10;;;;;;5040238;28;20106;-71
2023/09/27 02:34:33;;;;;;;;;;;15.50;86.00;;;;;;5040755;28;21919;-70
2023/09/27 02:37:00;;;;;;;;;;;15.50;86.10;;;;;;5040140;28;20070;-70
2023/09/27 02:39:28;;;;;;;;;;;15.40;86.00;;;;;;5040257;28;19979;-69
2023/09/27 02:41:56;;;;;;;;;;;15.40;86.10;;;;;;5040799;28;20003;-68
2023/09/27 02:44:22;;;;;;;;;;;15.50;86.20;;;;;;5039542;28;20473;-70
2023/09/27 02:46:49;;;;;;;;;;;15.40;86.10;;;;;;5039971;28;20006;-70
2023/09/27 02:49:17;;;;;;;;;;;15.40;86.20;;;;;;5040651;28;19987;-72
2023/09/27 02:51:43;;;;;;;;;;;15.40;86.10;;;;;;5039405;28;19996;-71
2023/09/27 02:54:11;;;;;;;;;;;15.40;86.20;;;;;;5041110;28;19976;-70
2023/09/27 02:56:37;;;;;;;;;;;15.30;86.20;;;;;;5039850;28;19979;-71
2023/09/27 02:59:04;;;;;;;;;;;15.30;86.20;;;;;;5039940;28;19984;-71
2023/09/27 03:01:31;;;;;;;;;;;15.30;86.30;;;;;;5039862;28;19995;-71
2023/09/27 03:03:57;;;;;;;;;;;15.30;86.40;;;;;;5040120;28;20454;-69
2023/09/27 03:06:25;;;;;;;;;;;15.30;86.40;;;;;;5040393;28;19995;-70
2023/09/27 03:08:53;;;;;;;;;;;15.30;86.50;;;;;;5040564;28;19979;-70
2023/09/27 03:11:19;;;;;;;;;;;15.20;86.40;;;;;;5040250;28;20003;-70
2023/09/27 03:13:46;;;;;;;;;;;15.20;86.40;;;;;;5057435;28;19982;-71
2023/09/27 03:16:12;;;;;;;;;;;15.20;86.40;;;;;;5062767;28;20073;-71
2023/09/27 03:18:39;;;;;;;;;;;15.20;86.40;;;;;;5060137;28;20002;-71
2023/09/27 03:21:06;;;;;;;;;;;15.20;86.40;;;;;;5059873;28;19995;-71
2023/09/27 03:23:34;;;;;;;;;;;15.20;86.30;;;;;;5065083;28;19979;-71
2023/09/27 03:26:01;;;;;;;;;;;15.10;86.30;;;;;;5064912;28;19999;-71
2023/09/27 03:28:28;;;;;;;;;;;15.10;86.30;;;;;;5055654;28;19979;-71
2023/09/27 03:30:55;;;;;;;;;;;15.10;86.40;;;;;;5063515;28;20021;-72
2023/09/27 03:33:22;;;;;;;;;;;15.10;87.10;;;;;;5066887;28;19979;-71
2023/09/27 03:35:48;;;;;;;;;;;15.10;86.40;;;;;;5068514;28;20014;-70
2023/09/27 03:38:15;;;;;;;;;;;15.10;86.50;;;;;;5071238;28;19982;-70
2023/09/27 03:40:43;;;;;;;;;;;15.00;86.40;;;;;;5070813;28;20099;-70
2023/09/27 03:43:09;;;;;;;;;;;15.00;86.50;;;;;;5072788;28;19994;-70
2023/09/27 03:45:36;;;;;;;;;;;15.10;86.60;;;;;;5070337;28;20002;-71
2023/09/27 03:48:03;;;;;;;;;;;15.00;86.50;;;;;;5070706;28;20029;-72
2023/09/27 03:50:30;;;;;;;;;;;15.00;86.60;;;;;;5070194;28;20002;-71
2023/09/27 03:52:56;;;;;;;;;;;15.00;86.50;;;;;;5073425;28;19979;-71
2023/09/27 03:55:23;;;;;;;;;;;15.00;86.60;;;;;;5065119;28;19986;-69
2023/09/27 03:57:51;;;;;;;;;;;14.90;86.40;;;;;;5066475;28;19980;-69
2023/09/27 04:00:18;;;;;;;;;;;14.90;86.40;;;;;;5066907;28;19986;-70
2023/09/27 04:02:46;;;;;;;;;;;14.90;86.50;;;;;;5066749;28;19975;-71
2023/09/27 04:05:13;;;;;;;;;;;14.90;86.50;;;;;;5066754;28;20445;-71
2023/09/27 04:07:40;;;;;;;;;;;14.90;86.50;;;;;;5072061;28;19983;-70
2023/09/27 04:10:07;;;;;;;;;;;14.90;86.50;;;;;;5070198;28;19979;-71
2023/09/27 04:12:34;;;;;;;;;;;14.80;86.40;;;;;;5069465;28;19994;-71
2023/09/27 04:15:02;;;;;;;;;;;14.80;86.40;;;;;;5068249;28;19980;-70
2023/09/27 04:17:29;;;;;;;;;;;14.80;86.40;;;;;;5069092;28;20100;-70
2023/09/27 04:19:56;;;;;;;;;;;14.80;86.30;;;;;;5060220;28;19987;-71
2023/09/27 04:22:22;;;;;;;;;;;14.80;86.30;;;;;;5058792;28;20002;-70
2023/09/27 04:24:49;;;;;;;;;;;14.80;86.30;;;;;;5071913;28;19982;-71
2023/09/27 04:27:15;;;;;;;;;;;14.80;86.20;;;;;;5063944;28;19979;-70
2023/09/27 04:29:42;;;;;;;;;;;14.80;86.20;;;;;;5071340;28;20048;-71
2023/09/27 04:32:10;;;;;;;;;;;14.70;86.10;;;;;;5064347;28;20011;-70
2023/09/27 04:34:36;;;;;;;;;;;14.70;86.10;;;;;;5069962;28;19987;-70
2023/09/27 04:37:03;;;;;;;;;;;14.70;86.10;;;;;;5065898;28;19975;-70
2023/09/27 04:39:31;;;;;;;;;;;14.60;86.00;;;;;;5068395;28;20391;-71
2023/09/27 04:41:58;;;;;;;;;;;14.70;86.10;;;;;;5065248;28;20027;-69
2023/09/27 04:44:25;;;;;;;;;;;14.60;86.00;;;;;;5068849;28;20123;-70
2023/09/27 04:46:52;;;;;;;;;;;14.60;86.00;;;;;;5069666;28;20034;-72
2023/09/27 04:49:19;;;;;;;;;;;14.60;86.00;;;;;;5067915;28;19980;-70
2023/09/27 04:51:46;;;;;;;;;;;14.60;86.10;;;;;;5071409;28;20002;-70
2023/09/27 04:54:12;;;;;;;;;;;14.60;86.00;;;;;;5067096;28;19982;-70
2023/09/27 04:56:39;;;;;;;;;;;14.50;86.00;;;;;;5065376;28;20025;-70
2023/09/27 04:59:06;;;;;;;;;;;14.50;86.00;;;;;;5064905;28;19979;-70
2023/09/27 05:01:33;;;;;;;;;;;14.50;86.10;;;;;;5067477;28;20006;-72
2023/09/27 05:03:59;;;;;;;;;;;14.50;86.10;;;;;;5066926;28;19979;-71
2023/09/27 05:06:28;;;;;;;;;;;14.50;86.10;;;;;;5063617;28;20002;-71
2023/09/27 05:08:54;;;;;;;;;;;14.50;86.10;;;;;;5066815;28;19975;-70
2023/09/27 05:11:22;;;;;;;;;;;14.40;86.00;;;;;;5064335;28;20716;-70
2023/09/27 05:13:48;;;;;;;;;;;14.40;86.10;;;;;;5068495;28;20030;-70
2023/09/27 05:16:15;;;;;;;;;;;14.40;86.10;;;;;;5068316;28;19999;-70
2023/09/27 05:18:41;;;;;;;;;;;14.40;86.10;;;;;;5067566;28;19980;-70
2023/09/27 05:21:08;;;;;;;;;;;14.30;86.00;;;;;;5070324;28;19991;-70
2023/09/27 05:23:36;;;;;;;;;;;14.30;86.00;;;;;;5071895;28;19979;-71
2023/09/27 05:26:02;;;;;;;;;;;14.30;86.00;;;;;;5070949;28;19996;-72
2023/09/27 05:28:29;;;;;;;;;;;14.30;86.10;;;;;;5070858;28;19981;-70
2023/09/27 05:30:56;;;;;;;;;;;14.30;86.10;;;;;;5067771;28;19995;-70
2023/09/27 05:33:24;;;;;;;;;;;14.30;86.10;;;;;;5068423;28;19983;-70
2023/09/27 05:35:51;;;;;;;;;;;14.30;86.20;;;;;;5070816;28;19979;-70
2023/09/27 05:38:17;;;;;;;;;;;14.20;86.10;;;;;;5070748;28;19980;-70
2023/09/27 05:40:45;;;;;;;;;;;14.20;86.20;;;;;;5064387;28;20716;-69
2023/09/27 05:43:12;;;;;;;;;;;14.20;86.20;;;;;;5068735;28;19976;-70
2023/09/27 05:45:38;;;;;;;;;;;14.20;86.20;;;;;;5067651;28;20372;-69
2023/09/27 05:48:05;;;;;;;;;;;14.20;86.30;;;;;;5074775;28;20390;-71
2023/09/27 05:50:32;;;;;;;;;;;14.10;86.30;;;;;;5067439;28;20022;-70
2023/09/27 05:52:59;;;;;;;;;;;14.20;86.40;;;;;;5074079;28;20497;-70
2023/09/27 05:55:26;;;;;;;;;;;14.10;86.40;;;;;;5066393;28;19979;-71
2023/09/27 05:57:54;;;;;;;;;;;14.10;86.50;;;;;;5061246;28;19983;-70
2023/09/27 06:00:26;;;;;;;;;;;14.10;86.60;;;;;;5067159;28;20007;-70
2023/09/27 06:02:52;;;;;;;;;;;14.00;86.50;;;;;;5067062;28;19975;-70
2023/09/27 06:05:19;;;;;;;;;;;14.00;86.60;;;;;;5070285;28;19982;-70
2023/09/27 06:07:46;;;;;;;;;;;14.00;86.80;;;;;;5069933;28;20366;-70
2023/09/27 06:10:12;;;;;;;;;;;14.00;86.80;;;;;;5067545;28;20464;-71
2023/09/27 06:12:39;;;;;;;;;;;14.00;86.90;;;;;;5063417;28;19986;-70
2023/09/27 06:15:09;;;;;;;;;;;14.00;86.90;;;;;;5067102;28;20014;-69
2023/09/27 06:17:36;;;;;;;;;;;14.00;87.10;;;;;;5070063;28;19976;-70
2023/09/27 06:20:05;;;;;;;;;;;13.90;87.00;;;;;;5066405;28;19983;-72
2023/09/27 06:22:31;;;;;;;;;;;13.90;87.10;;;;;;5068611;28;19976;-71
2023/09/27 06:24:58;;;;;;;;;;;13.90;87.20;;;;;;5064347;28;19979;-70
2023/09/27 06:27:24;;;;;;;;;;;13.90;87.20;;;;;;5063560;28;19999;-71
2023/09/27 06:29:51;;;;;;;;;;;13.90;87.30;;;;;;5071678;28;20676;-70
2023/09/27 06:32:18;;;;;;;;;;;13.80;87.30;;;;;;5070492;28;20005;-71
2023/09/27 06:34:45;;;;;;;;;;;13.90;87.50;;;;;;5065735;28;19982;-70
2023/09/27 06:37:13;;;;;;;;;;;13.90;87.60;;;;;;5069496;28;19983;-71
2023/09/27 06:39:41;;;;;;;;;;;13.90;87.70;;;;;;5069284;28;20006;-71
2023/09/27 06:42:07;;;;;;;;;;;13.90;87.70;;;;;;5066249;28;19997;-72
2023/09/27 06:44:34;;;;;;;;;;;13.80;87.70;;;;;;5072291;28;19991;-71
2023/09/27 06:47:02;;;;;;;;;;;13.90;87.90;;;;;;5071112;28;19999;-70
2023/09/27 06:49:30;;;;;;;;;;;13.80;87.90;;;;;;5066097;28;19975;-71
2023/09/27 06:51:57;;;;;;;;;;;13.80;88.00;;;;;;5069553;28;20524;-71
2023/09/27 06:54:25;;;;;;;;;;;13.80;88.00;;;;;;5069717;28;20466;-71
2023/09/27 06:56:52;;;;;;;;;;;13.80;88.10;;;;;;5063253;28;20445;-71
2023/09/27 06:59:18;;;;;;;;;;;13.80;88.10;;;;;;5066846;28;20042;-70
2023/09/27 07:01:45;;;;;;;;;;;13.80;88.20;;;;;;5070028;28;20003;-71
2023/09/27 07:04:12;;;;;;;;;;;13.80;88.30;;;;;;5069235;28;19987;-70
2023/09/27 07:06:40;;;;;;;;;;;13.80;88.40;;;;;;5066934;28;19987;-71
2023/09/27 07:09:12;;;;;;;;;;;13.70;88.40;;;;;;5067583;28;19979;-68
2023/09/27 07:11:40;;;;;;;;;;;13.80;89.40;;;;;;5067131;28;19995;-71
2023/09/27 07:14:07;;;;;;;;;;;13.70;88.70;;;;;;5067133;28;20453;-70
2023/09/27 07:16:33;;;;;;;;;;;13.70;89.00;;;;;;5068192;28;19995;-71
2023/09/27 07:19:00;;;;;;;;;;;13.70;89.20;;;;;;5067624;28;19979;-70
2023/09/27 07:21:27;;;;;;;;;;;13.70;89.40;;;;;;5065500;28;19992;-70
2023/09/27 07:23:55;;;;;;;;;;;13.70;89.60;;;;;;5067775;28;20075;-70
2023/09/27 07:26:22;;;;;;;;;;;13.70;89.80;;;;;;5066891;28;20034;-70
2023/09/27 07:28:48;;;;;;;;;;;13.70;89.90;;;;;;5065544;28;19982;-70
2023/09/27 07:31:16;;;;;;;;;;;13.70;90.00;;;;;;5065820;28;20053;-70
2023/09/27 07:33:44;;;;;;;;;;;13.70;90.30;;;;;;5066052;28;19982;-70
2023/09/27 07:36:11;;;;;;;;;;;13.70;90.10;;;;;;5064677;28;19976;-70
2023/09/27 07:38:39;;;;;;;;;;;13.70;90.20;;;;;;5064660;28;19975;-70
2023/09/27 07:41:08;;;;;;;;;;;13.70;90.10;;;;;;5068962;28;20088;-71
2023/09/27 07:43:36;;;;;;;;;;;13.70;90.10;;;;;;5056282;28;19986;-71
2023/09/27 07:46:06;;;;;;;;;;;13.70;90.10;;;;;;5067648;28;20007;-69
2023/09/27 07:48:35;;;;;;;;;;;13.70;90.10;;;;;;5065393;28;20356;-70
2023/09/27 07:51:02;;;;;;;;;;;13.70;90.10;;;;;;5066487;28;20240;-70
2023/09/27 07:53:29;;;;;;;;;;;13.70;90.10;;;;;;5064137;28;20596;-70
2023/09/27 07:55:57;;;;;;;;;;;13.80;90.10;;;;;;5065044;28;20353;-69
2023/09/27 07:58:25;;;;;;;;;;;13.70;90.10;;;;;;5062433;28;20037;-71
2023/09/27 08:00:51;;;;;;;;;;;13.80;90.10;;;;;;5065293;28;20007;-70
2023/09/27 08:03:21;;;;;;;;;;;13.80;90.00;;;;;;5067159;28;19975;-70
2023/09/27 08:05:49;;;;;;;;;;;13.80;90.00;;;;;;5062580;28;19972;-69
2023/09/27 08:08:16;;;;;;;;;;;13.80;90.00;;;;;;5064754;28;19995;-71
2023/09/27 08:10:45;;;;;;;;;;;13.90;90.00;;;;;;5061159;28;20022;-70
2023/09/27 08:13:12;;;;;;;;;;;13.90;90.00;;;;;;5065805;28;19985;-70
2023/09/27 08:15:40;;;;;;;;;;;13.90;90.30;;;;;;5064797;28;19991;-69
2023/09/27 08:18:07;;;;;;;;;;;14.00;89.80;;;;;;5064135;28;19987;-71
2023/09/27 08:20:34;;;;;;;;;;;14.00;89.80;;;;;;5067063;28;20052;-70
2023/09/27 08:23:01;;;;;;;;;;;14.00;89.90;;;;;;5066057;28;20469;-70
2023/09/27 08:25:27;;;;;;;;;;;14.00;89.90;;;;;;5062715;28;20379;-71
2023/09/27 08:27:54;;;;;;;;;;;14.10;90.00;;;;;;5061733;28;20318;-70
2023/09/27 08:30:21;;;;;;;;;;;14.20;90.00;;;;;;5064184;28;19982;-71
2023/09/27 08:32:49;;;;;;;;;;;14.20;90.00;;;;;;5066660;28;20014;-70
2023/09/27 08:35:16;;;;;;;;;;;14.20;90.00;;;;;;5065547;28;20446;-69
2023/09/27 08:37:42;;;;;;;;;;;14.30;90.00;;;;;;5064978;28;20058;-70
2023/09/27 08:40:13;;;;;;;;;;;14.30;90.00;;;;;;5065731;28;19979;-71
2023/09/27 08:42:39;;;;;;;;;;;14.40;90.20;;;;;;5061248;28;20465;-70
2023/09/27 08:45:09;;;;;;;;;;;14.50;90.10;;;;;;5065853;28;20539;-68
2023/09/27 08:47:35;;;;;;;;;;;14.50;90.00;;;;;;5062907;28;20065;-71
2023/09/27 08:50:04;;;;;;;;;;;14.50;90.00;;;;;;5062567;28;19983;-71
2023/09/27 08:52:31;;;;;;;;;;;14.50;89.90;;;;;;5063003;28;20023;-70
2023/09/27 08:54:57;;;;;;;;;;;14.60;89.70;;;;;;5065249;28;19990;-70
2023/09/27 08:57:26;;;;;;;;;;;14.70;89.60;;;;;;5059978;28;19983;-71
2023/09/27 08:59:52;;;;;;;;;;;14.70;89.30;;;;;;5064354;28;19984;-70
2023/09/27 09:02:19;;;;;;;;;;;14.80;89.30;;;;;;5063605;28;20097;-69
2023/09/27 09:04:46;;;;;;;;;;;14.80;89.30;;;;;;5064598;28;19975;-70
2023/09/27 09:07:14;;;;;;;;;;;14.90;89.30;;;;;;5063792;28;20086;-70
2023/09/27 09:09:41;;;;;;;;;;;14.90;89.00;;;;;;5055851;28;19976;-73
2023/09/27 09:12:09;;;;;;;;;;;14.90;88.80;;;;;;5063037;28;20001;-71
2023/09/27 09:14:39;;;;;;;;;;;15.00;88.70;;;;;;5064116;28;19975;-69
2023/09/27 09:17:07;;;;;;;;;;;15.10;88.80;;;;;;5058896;28;20002;-69
2023/09/27 09:19:38;;;;;;;;;;;15.10;88.60;;;;;;5063866;28;20402;-69
2023/09/27 09:22:08;;;;;;;;;;;15.20;88.50;;;;;;5063685;28;19991;-69
2023/09/27 09:24:36;;;;;;;;;;;15.30;88.70;;;;;;5064274;28;20064;-69
2023/09/27 09:27:08;;;;;;;;;;;15.30;88.50;;;;;;5061747;28;20556;-69
2023/09/27 09:29:50;;;;;;;;;;;15.40;88.20;;;;;;5065274;28;20078;-69
2023/09/27 09:32:18;;;;;;;;;;;15.40;87.90;;;;;;5068518;28;20615;-69
2023/09/27 09:34:46;;;;;;;;;;;15.50;87.60;;;;;;5064902;28;20023;-69
2023/09/27 09:37:17;;;;;;;;;;;15.60;87.30;;;;;;5063895;28;19979;-70
2023/09/27 09:39:46;;;;;;;;;;;15.70;87.20;;;;;;5059285;28;20011;-70
2023/09/27 09:42:13;;;;;;;;;;;15.70;87.00;;;;;;5064014;28;20000;-70
2023/09/27 09:44:40;;;;;;;;;;;15.80;86.80;;;;;;5063908;28;19976;-70
2023/09/27 09:47:11;;;;;;;;;;;15.90;86.70;;;;;;5061064;28;20062;-70
2023/09/27 09:49:38;;;;;;;;;;;15.90;86.40;;;;;;5063398;28;20070;-70
2023/09/27 09:52:05;;;;;;;;;;;16.00;86.20;;;;;;5062882;28;19991;-70
2023/09/27 09:54:36;;;;;;;;;;;16.10;86.10;;;;;;5064414;28;20025;-69
2023/09/27 09:57:05;;;;;;;;;;;16.10;85.80;;;;;;5062815;28;20022;-69
2023/09/27 09:59:35;;;;;;;;;;;16.20;85.70;;;;;;5061944;28;19975;-68
2023/09/27 10:02:04;;;;;;;;;;;16.30;85.60;;;;;;5064306;28;20035;-70
2023/09/27 10:04:31;;;;;;;;;;;16.40;85.50;;;;;;5066418;28;20009;-70
2023/09/27 10:07:00;;;;;;;;;;;16.40;85.20;;;;;;5067138;28;19998;-70
2023/09/27 10:09:28;;;;;;;;;;;16.50;85.10;;;;;;5066571;28;19975;-71
2023/09/27 10:11:56;;;;;;;;;;;16.60;85.10;;;;;;5066541;28;20693;-70
2023/09/27 10:14:24;;;;;;;;;;;16.70;85.00;;;;;;5066812;28;19986;-71
2023/09/27 10:16:51;;;;;;;;;;;16.70;84.80;;;;;;5067251;28;19995;-69
2023/09/27 10:19:25;;;;;;;;;;;16.80;84.80;;;;;;5067558;28;19983;-70
2023/09/27 10:22:04;;;;;;;;;;;16.90;84.80;;;;;;5064576;28;19998;-71
2023/09/27 10:24:30;;;;;;;;;;;16.90;84.60;;;;;;5068114;28;20077;-69
2023/09/27 10:26:57;;;;;;;;;;;17.00;84.40;;;;;;5063864;28;19980;-70
2023/09/27 10:29:25;;;;;;;;;;;17.10;84.40;;;;;;5066608;28;19980;-70
2023/09/27 10:32:12;;;;;;;;;;;17.20;84.40;;;;;;5065375;28;20005;-70
2023/09/27 10:34:39;;;;;;;;;;;17.30;84.30;;;;;;5062870;28;20067;-70
2023/09/27 10:37:07;;;;;;;;;;;17.30;84.00;;;;;;5064348;28;19979;-69
2023/09/27 10:39:34;;;;;;;;;;;17.40;83.90;;;;;;5065856;28;19981;-70
2023/09/27 10:42:00;;;;;;;;;;;17.50;83.60;;;;;;5062837;28;19995;-69
2023/09/27 10:44:28;;;;;;;;;;;17.60;83.40;;;;;;5067369;28;19997;-71
2023/09/27 10:46:55;;;;;;;;;;;17.60;83.30;;;;;;5061184;28;19996;-70
2023/09/27 10:49:22;;;;;;;;;;;17.70;83.30;;;;;;5065153;28;20626;-70
2023/09/27 10:51:48;;;;;;;;;;;17.80;83.20;;;;;;5063646;28;19991;-69
2023/09/27 10:54:15;;;;;;;;;;;17.80;83.20;;;;;;5066771;28;19980;-70
2023/09/27 10:56:42;;;;;;;;;;;17.90;82.80;;;;;;5063980;28;19991;-70
2023/09/27 10:59:09;;;;;;;;;;;18.00;82.80;;;;;;5063027;28;19979;-72
2023/09/27 11:01:43;;;;;;;;;;;18.00;82.50;;;;;;5060301;28;20006;-70
2023/09/27 11:04:12;;;;;;;;;;;18.10;82.20;;;;;;5063134;28;19995;-70
2023/09/27 11:06:39;;;;;;;;;;;18.10;82.20;;;;;;5061240;28;19980;-70
2023/09/27 11:09:06;;;;;;;;;;;18.20;82.10;;;;;;5065894;28;19999;-71
2023/09/27 11:11:33;;;;;;;;;;;18.30;81.80;;;;;;5062373;28;20000;-70
2023/09/27 11:14:00;;;;;;;;;;;18.40;81.60;;;;;;5066253;28;20044;-69
2023/09/27 11:16:26;;;;;;;;;;;18.50;81.70;;;;;;5062211;28;19995;-70
2023/09/27 11:18:56;;;;;;;;;;;18.50;81.50;;;;;;5060569;28;19979;-70
2023/09/27 11:21:23;;;;;;;;;;;18.60;81.40;;;;;;5063167;28;20582;-71
2023/09/27 11:23:54;;;;;;;;;;;18.60;81.10;;;;;;5060185;28;20374;-69
2023/09/27 11:26:20;;;;;;;;;;;18.70;81.00;;;;;;5064300;28;19979;-70
2023/09/27 11:28:47;;;;;;;;;;;18.80;80.80;;;;;;5062232;28;19991;-71
2023/09/27 11:31:22;;;;;;;;;;;18.90;80.60;;;;;;5062874;28;20109;-70
2023/09/27 11:33:48;;;;;;;;;;;19.00;80.70;;;;;;5065727;28;19975;-69
2023/09/27 11:36:16;;;;;;;;;;;19.00;80.40;;;;;;5056995;28;19979;-70
2023/09/27 11:38:48;;;;;;;;;;;19.00;80.40;;;;;;5062965;28;19979;-71
2023/09/27 11:41:16;;;;;;;;;;;19.10;80.30;;;;;;5060329;28;20125;-71
2023/09/27 11:43:43;;;;;;;;;;;19.20;80.20;;;;;;5054422;28;19982;-70
2023/09/27 11:46:10;;;;;;;;;;;19.20;79.80;;;;;;5058771;28;19995;-71
2023/09/27 11:48:36;;;;;;;;;;;19.30;79.90;;;;;;5058376;28;19992;-70
2023/09/27 11:51:04;;;;;;;;;;;19.40;79.60;;;;;;5058923;28;20603;-70
2023/09/27 11:53:32;;;;;;;;;;;19.40;79.40;;;;;;5056273;28;20125;-70
2023/09/27 11:55:59;;;;;;;;;;;19.50;79.40;;;;;;5061575;28;20282;-70
2023/09/27 11:58:26;;;;;;;;;;;19.60;79.20;;;;;;5055984;28;19979;-69
2023/09/27 12:00:52;;;;;;;;;;;19.60;78.80;;;;;;5058317;28;20003;-71
2023/09/27 12:03:19;;;;;;;;;;;19.70;78.80;;;;;;5060038;28;19980;-69
2023/09/27 12:05:45;;;;;;;;;;;19.80;78.80;;;;;;5057694;28;19987;-70
2023/09/27 12:08:12;;;;;;;;;;;19.80;78.50;;;;;;5064231;28;20002;-70
2023/09/27 12:10:40;;;;;;;;;;;19.90;78.40;;;;;;5059707;28;19987;-70
2023/09/27 12:13:07;;;;;;;;;;;19.90;78.30;;;;;;5061175;28;19986;-70
2023/09/27 12:15:34;;;;;;;;;;;19.90;78.50;;;;;;5057040;28;20471;-69
2023/09/27 12:18:00;;;;;;;;;;;19.90;78.40;;;;;;5064937;28;20033;-70
2023/09/27 12:20:29;;;;;;;;;;;19.90;78.50;;;;;;5070955;28;20007;-69
2023/09/27 12:22:57;;;;;;;;;;;19.90;78.50;;;;;;5070028;28;19979;-69
2023/09/27 12:25:23;;;;;;;;;;;20.00;78.60;;;;;;5068815;28;19990;-69
2023/09/27 12:27:51;;;;;;;;;;;20.00;77.90;;;;;;5061651;28;19996;-70
2023/09/27 12:30:18;;;;;;;;;;;20.00;78.30;;;;;;5062717;28;19983;-70
2023/09/27 12:32:44;;;;;;;;;;;20.00;77.80;;;;;;5067318;28;20438;-70
2023/09/27 12:35:11;;;;;;;;;;;20.10;78.30;;;;;;5069483;28;19979;-71
2023/09/27 12:37:38;;;;;;;;;;;20.20;78.10;;;;;;5070311;28;19982;-72
2023/09/27 12:40:05;;;;;;;;;;;20.20;77.80;;;;;;5067460;28;19983;-71
2023/09/27 12:42:32;;;;;;;;;;;20.30;77.60;;;;;;5063788;28;20045;-69
2023/09/27 12:45:01;;;;;;;;;;;20.40;77.40;;;;;;5071262;28;19986;-72
2023/09/27 12:47:28;;;;;;;;;;;20.50;77.00;;;;;;5062785;28;20014;-70
2023/09/27 12:49:56;;;;;;;;;;;20.60;76.70;;;;;;5069349;28;19979;-69
2023/09/27 12:52:22;;;;;;;;;;;20.60;76.20;;;;;;5067347;28;20002;-70
2023/09/27 12:54:49;;;;;;;;;;;20.70;75.70;;;;;;5063849;28;19987;-70
2023/09/27 12:57:15;;;;;;;;;;;20.80;75.50;;;;;;5061247;28;19980;-71
2023/09/27 12:59:42;;;;;;;;;;;20.90;75.60;;;;;;5067403;28;20635;-69
2023/09/27 13:02:10;;;;;;;;;;;20.90;75.20;;;;;;5064080;28;19999;-70
2023/09/27 13:04:36;;;;;;;;;;;21.00;75.80;;;;;;5066318;28;19990;-70
2023/09/27 13:07:03;;;;;;;;;;;21.10;74.70;;;;;;5064791;28;19998;-70
2023/09/27 13:09:30;;;;;;;;;;;21.10;74.50;;;;;;5068189;28;20008;-70
2023/09/27 13:11:57;;;;;;;;;;;21.20;73.80;;;;;;5064094;28;20504;-70
2023/09/27 13:14:23;;;;;;;;;;;21.30;73.90;;;;;;5065669;28;20072;-70
2023/09/27 13:16:50;;;;;;;;;;;21.30;73.90;;;;;;5067525;28;20010;-70
2023/09/27 13:19:18;;;;;;;;;;;21.40;73.70;;;;;;5066334;28;19976;-70
2023/09/27 13:21:44;;;;;;;;;;;21.50;73.60;;;;;;5071307;28;20470;-70
2023/09/27 13:24:11;;;;;;;;;;;21.50;72.80;;;;;;5072176;28;19979;-70
2023/09/27 13:26:37;;;;;;;;;;;21.60;73.00;;;;;;5064479;28;19986;-70
2023/09/27 13:29:04;;;;;;;;;;;21.70;73.00;;;;;;5064475;28;20002;-69
2023/09/27 13:31:33;;;;;;;;;;;21.70;72.30;;;;;;5066235;28;19999;-70
2023/09/27 13:34:00;;;;;;;;;;;21.80;72.40;;;;;;5063138;28;19983;-69
2023/09/27 13:36:28;;;;;;;;;;;21.80;72.30;;;;;;5070531;28;20006;-70
2023/09/27 13:38:55;;;;;;;;;;;21.80;72.10;;;;;;5073198;28;19986;-71
2023/09/27 13:41:22;;;;;;;;;;;21.90;72.10;;;;;;5071923;28;19996;-69
2023/09/27 13:43:49;;;;;;;;;;;21.90;71.60;;;;;;5065561;28;19980;-70
2023/09/27 13:46:15;;;;;;;;;;;22.00;71.70;;;;;;5070284;28;20206;-69
2023/09/27 13:48:42;;;;;;;;;;;22.00;71.60;;;;;;5070331;28;20003;-70
2023/09/27 13:51:09;;;;;;;;;;;22.10;71.30;;;;;;5067070;28;20317;-70
2023/09/27 13:53:36;;;;;;;;;;;22.10;71.00;;;;;;5064967;28;19988;-70
2023/09/27 13:56:03;;;;;;;;;;;22.20;70.40;;;;;;5065266;28;20369;-70
2023/09/27 13:58:30;;;;;;;;;;;22.20;70.80;;;;;;5063876;28;19980;-72
2023/09/27 14:00:56;;;;;;;;;;;22.30;70.90;;;;;;5066554;28;20004;-70
2023/09/27 14:03:23;;;;;;;;;;;22.30;70.70;;;;;;5065061;28;19998;-70
2023/09/27 14:05:50;;;;;;;;;;;22.40;70.00;;;;;;5067114;28;20006;-69
2023/09/27 14:08:17;;;;;;;;;;;22.50;70.10;;;;;;5064991;28;20512;-71
2023/09/27 14:10:45;;;;;;;;;;;22.50;70.70;;;;;;5066021;28;20004;-70
2023/09/27 14:13:11;;;;;;;;;;;22.50;69.60;;;;;;5069592;28;19986;-70
2023/09/27 14:15:38;;;;;;;;;;;22.60;69.50;;;;;;5069161;28;19999;-71
2023/09/27 14:18:05;;;;;;;;;;;22.60;69.50;;;;;;5073595;28;19979;-70
2023/09/27 14:20:31;;;;;;;;;;;22.70;69.50;;;;;;5069171;28;20016;-70